PAAQ METAR and TAF weather

Enter ICAO airport designator
Station Type Date Time Source
PAAQ METAR 2019/04/23 03:58 UTC NOAA

PAAQ 230358Z AUTO 00000KT 3SM -SN FEW019 BKN033 OVC042 01/M02 A2945 RMK AO2 P0000 T00111017 TSNO


Station Type Date Time Source
PAAQ Decoded METAR 2019/04/23 03:58 UTC NOAA

PALMER MUNICIPAL AIRPORT, AK, United States (PAAQ) 61-36N 149-06W
Apr 22, 2019 - 11:58 PM EDT / 2019.04.23 0358 UTC
Wind: Calm:0
Visibility: 3 mile(s):0
Sky conditions: overcast
Weather: light snow
Precipitation last hour: A trace
Temperature: 34.0 F (1.1 C)
Dew Point: 28.9 F (-1.7 C)
Relative Humidity: 81%
Pressure (altimeter): 29.45 in. Hg (997 hPa)
ob: PAAQ 230358Z AUTO 00000KT 3SM -SN FEW019 BKN033 OVC042 01/M02 A2945 RMK AO2 P0000 T00111017 TSNO
cycle: 4

Station Type Date Time Source
PAAQ TAF 2019/04/23 03:59 UTC NOAA

TAF
AMD PAAQ 230259Z 2303/2324 25006KT P6SM VCSH SCT020 BKN040
TEMPO 2303/2305 2SM -SN OVC020
FM230600 14008KT P6SM VCSH OVC035
FM231000 17006KT P6SM SCT040 BKN070

Example: see airport list